KSTS

Charles M Schulz - Sonoma County Airport

Santa Rosa, California, USA
METAR KSTS 220353Z 30005KT 10SM CLR 09/05 A3031 RMK AO2 SLP258 T00890050
Observed Flight Rules
Jan-22 @ 03:53 UTC (24 minutes ago) Visual Flight Rules
Wind Visibility Clouds
300° at 5 knots 10 miles
  • Clear skies
Temperatures Readings
Current 9°C / 48°F
Dewpoint 5°C / 41°F
Humidity 76%
Altimeter 30.31" Hg
Pressure 1025.8 hPa
Elevation 39
METAR KSTS 220353Z 30005KT 10SM CLR 09/05 A3031 RMK AO2 SLP258 T00890050
Observed Flight Rules
Jan-22 @ 03:53 UTC
(24 minutes ago)
VFR
Wind Visibility
300° at 5 knots 10 miles
Clouds
  • Clear skies
Temperature Dewpoint
9°C / 48°F 5°C / 41°F
Humidity Altimeter Pressure
76% 30.31" Hg 1025.8 hPa